Manchester Airport

EGCC · 英格兰, 英国

使用的METAR站距离机场50 km。
罗盘
风向 的 风向 160° 曼彻斯特机场 5R/23L
风: 9 kt, 3 beaufort

3 kt

9 kt
改变
0 ft 1.000 2.000 3.000 4.000 5.000
Cloud Cloud Cloud Cloud
SCT 1.200
Cloud Cloud Cloud Cloud Cloud Cloud
BKN 4.800
METAR EGNR 280850Z 16009KT 9999 SCT012 BKN048 05/03 Q1015

METAR 曼彻斯特机场 - EGCC/MAN

曼彻斯特机场是,英国中的大型机场。 该机场位于纬度53,34715和经度-2,28388。 该机场有2条跑道: 5R/23L 和 5L/23R. 本场的ICAO机场代码为EGCC。 该机场的IATA代码为MAN。 机场在London FIR中。

该航空气象观测是针对Hawarden Airport在2024年2月28日 08:50, 当地时间进行的。

机场观察

风向为160°,速度为9 kt。

可见度为10 km 或者更多。

有疏云,零星散落的云朵在1.200 ft的高度 和 碎云在4.800 ft的高度。 破损或更高的上限为4.800 ft。

温度为5 °C,阵风为0 °C。 露点为3 °C,相对湿度为87%。 海平面上的气压为1015 hPa (QNH)。

白天

今天,太阳从06:59升起,在17:43降落。 这适用于曼彻斯特机场,世界夏令时可能有所不同。 当地时间与世界标准时间之间的时差为+0 小时。 当前,没有夏令时有效。

公司介绍

我们没有关于这个机场的公司信息。

体会

到Vliegles.nl去找飞行课程,跳伞和其他飞行体验。 浏览页面,了解曼彻斯特机场附近所有可用的活动。 你也可以使用搜索功能来寻找你所在地附近的特定飞行课程、跳伞或其他飞行体验。

请勿用于飞行规划
机场可能关闭或需要事先获得许可。 真正的航向和跑道末端的坐标可能是一个估计值。 磁性航向是使用WMM2020模型从真实航向计算出来的。

跑道

Id 标题 侧风 逆风 侧风 %
5R/23L 051°-231° 9 kt 3 kt 95 %
5L/23R 051°-231° 9 kt 3 kt 95 %

逆风成分最大的方向会被突出显示,并用于横风计算。 这并不一定意味着这个方向在使用。

乌云

1.200 ft SCT 疏云,零星散落的云朵
4.800 ft BKN 碎云

温度 & 天气

温度 5 °C
露点 3 °C
相对湿度 87%
风寒 0 °C
Kp-index 0 (0-9)

白天

日出
07:02
中午
12:24
日落
17:46 (8:30)

小工具

你想在你的网站上有一个关于曼彻斯特机场的当前航空天气(METAR)的小部件吗?

显示HTML代码
?>